Hai Hua — XUDB9 — position and weather

sailwx.info

Track history (hours):
 
Tides and Currents Weather Stations Pressure Air Temp Water Temp Dewpoint Dewpoint Depression Visibility Wind Speed Wind Dir Waves Ship Positions

Hai Hua

Last reported at 2014-Aug-19 21:13 UTC. Time now 2014-Aug-27 11:07 UTC.
Position N 35°59' E 120°32'.

Length 69 m; draft 3.4 m.

Type: Cargo ship. MMSI: 515171000.

Date/timePositionNaut miles runAvg speedWind from/ knotsBaromVisibWave heightAir tempDewpointWater temp
2014-Aug-19 21:13N 35°59' E 120°32'6 9.7
2014-Aug-19 20:34N 36°00' E 120°24'4 0.2
2014-Aug-19 00:22N 36°02' E 120°19'810.4
2014-Aug-18 23:33N 36°00' E 120°30'103 9.9
2014-Aug-18 13:09N 36°45' E 122°25'610.7
2014-Aug-18 12:33N 36°49' E 122°31'44 8.5
2014-Aug-18 07:21N 37°33' E 122°30'8 9.9
2014-Aug-18 06:33N 37°35' E 122°21'10 9.7
2014-Aug-18 05:33N 37°38' E 122°09'20 9.7
2014-Aug-18 03:27N 37°40' E 121°43'9 9.8
2014-Aug-18 02:33N 37°41' E 121°32'1010.0
2014-Aug-18 01:33N 37°40' E 121°20'9 8.7
2014-Aug-18 00:33N 37°37' E 121°09'1 0.1
2014-Aug-17 17:26N 37°38' E 121°08'0 0.0
2014-Aug-17 10:26N 37°38' E 121°08'0 0.0
2014-Aug-17 08:14N 37°38' E 121°08'0 0.0
2014-Aug-17 07:32N 37°38' E 121°08'0 0.0
2014-Aug-17 05:32N 37°38' E 121°08'2 0.7
2014-Aug-17 03:28N 37°37' E 121°10'8 8.4
2014-Aug-17 02:33N 37°40' E 121°19'5 4.8
2014-Aug-17 01:33N 37°40' E 121°25'4 4.3
2014-Aug-17 00:33N 37°40' E 121°31'0 0.0
2014-Aug-16 23:33N 37°40' E 121°31'0 0.0
2014-Aug-16 22:33N 37°40' E 121°31'0 0.0
2014-Aug-16 21:27N 37°40' E 121°31'0 0.0
2014-Aug-16 20:33N 37°40' E 121°31'0 0.0
2014-Aug-16 19:33N 37°40' E 121°31'0 0.1
2014-Aug-16 18:33N 37°40' E 121°31'0 0.0
2014-Aug-16 17:33N 37°40' E 121°31'0 0.0
2014-Aug-16 16:33N 37°40' E 121°31'0 0.0
2014-Aug-16 15:27N 37°40' E 121°31'0 0.0
2014-Aug-16 14:33N 37°40' E 121°31'0 0.0
2014-Aug-16 13:33N 37°40' E 121°31'6 6.5
2014-Aug-16 12:33N 37°40' E 121°39'9 9.0
2014-Aug-16 11:33N 37°39' E 121°50'9 8.8
2014-Aug-16 10:34N 37°39' E 122°01'9 8.7
2014-Aug-16 09:32N 37°38' E 122°13'8 8.6
2014-Aug-16 08:33N 37°38' E 122°23'9 8.4
2014-Aug-16 07:33N 37°37' E 122°34'  
Track history (hours):
 
Tides and Currents Weather Stations Pressure Air Temp Water Temp Dewpoint Dewpoint Depression Visibility Wind Speed Wind Dir Waves Ship Positions

Hai Hua

Last reported at 2014-Aug-19 21:13 UTC. Time now 2014-Aug-27 11:07 UTC.
Position N 35°59' E 120°32'.

Length 69 m; draft 3.4 m.

Type: Cargo ship. MMSI: 515171000.

Date/timePositionNaut miles runAvg speedWind from/ knotsBaromVisibWave heightAir tempDewpointWater temp
2014-Aug-19 21:13N 35°59' E 120°32'6 9.7
2014-Aug-19 20:34N 36°00' E 120°24'4 0.2
2014-Aug-19 00:22N 36°02' E 120°19'810.4
2014-Aug-18 23:33N 36°00' E 120°30'103 9.9
2014-Aug-18 13:09N 36°45' E 122°25'610.7
2014-Aug-18 12:33N 36°49' E 122°31'44 8.5
2014-Aug-18 07:21N 37°33' E 122°30'8 9.9
2014-Aug-18 06:33N 37°35' E 122°21'10 9.7
2014-Aug-18 05:33N 37°38' E 122°09'20 9.7
2014-Aug-18 03:27N 37°40' E 121°43'9 9.8
2014-Aug-18 02:33N 37°41' E 121°32'1010.0
2014-Aug-18 01:33N 37°40' E 121°20'9 8.7
2014-Aug-18 00:33N 37°37' E 121°09'1 0.1
2014-Aug-17 17:26N 37°38' E 121°08'0 0.0
2014-Aug-17 10:26N 37°38' E 121°08'0 0.0
2014-Aug-17 08:14N 37°38' E 121°08'0 0.0
2014-Aug-17 07:32N 37°38' E 121°08'0 0.0
2014-Aug-17 05:32N 37°38' E 121°08'2 0.7
2014-Aug-17 03:28N 37°37' E 121°10'8 8.4
2014-Aug-17 02:33N 37°40' E 121°19'5 4.8
2014-Aug-17 01:33N 37°40' E 121°25'4 4.3
2014-Aug-17 00:33N 37°40' E 121°31'0 0.0
2014-Aug-16 23:33N 37°40' E 121°31'0 0.0
2014-Aug-16 22:33N 37°40' E 121°31'0 0.0
2014-Aug-16 21:27N 37°40' E 121°31'0 0.0
2014-Aug-16 20:33N 37°40' E 121°31'0 0.0
2014-Aug-16 19:33N 37°40' E 121°31'0 0.1
2014-Aug-16 18:33N 37°40' E 121°31'0 0.0
2014-Aug-16 17:33N 37°40' E 121°31'0 0.0
2014-Aug-16 16:33N 37°40' E 121°31'0 0.0
2014-Aug-16 15:27N 37°40' E 121°31'0 0.0
2014-Aug-16 14:33N 37°40' E 121°31'0 0.0
2014-Aug-16 13:33N 37°40' E 121°31'6 6.5
2014-Aug-16 12:33N 37°40' E 121°39'9 9.0
2014-Aug-16 11:33N 37°39' E 121°50'9 8.8
2014-Aug-16 10:34N 37°39' E 122°01'9 8.7
2014-Aug-16 09:32N 37°38' E 122°13'8 8.6
2014-Aug-16 08:33N 37°38' E 122°23'9 8.4
2014-Aug-16 07:33N 37°37' E 122°34'  

Dump ship's entire track history